sensor_id;sensor_type;location;lat;lon;timestamp;P1;durP1;ratioP1;P2;durP2;ratioP2
10029;SDS011;5055;52.054;8.524;2023-04-19T00:00:06;0.40;;;0.40;;
10029;SDS011;5055;52.054;8.524;2023-04-19T00:02:34;0.20;;;0.20;;
10029;SDS011;5055;52.054;8.524;2023-04-19T00:05:05;0.30;;;0.30;;
10029;SDS011;5055;52.054;8.524;2023-04-19T00:07:33;0.30;;;0.30;;
10029;SDS011;5055;52.054;8.524;2023-04-19T00:10:01;0.40;;;0.40;;
10029;SDS011;5055;52.054;8.524;2023-04-19T00:12:29;0.30;;;0.30;;
10029;SDS011;5055;52.054;8.524;2023-04-19T00:14:57;0.30;;;0.30;;
10029;SDS011;5055;52.054;8.524;2023-04-19T00:17:25;0.30;;;0.30;;
10029;SDS011;5055;52.054;8.524;2023-04-19T00:19:54;0.40;;;0.40;;
10029;SDS011;5055;52.054;8.524;2023-04-19T00:22:24;0.40;;;0.40;;
10029;SDS011;5055;52.054;8.524;2023-04-19T00:24:53;0.20;;;0.20;;
10029;SDS011;5055;52.054;8.524;2023-04-19T00:27:21;0.40;;;0.40;;
10029;SDS011;5055;52.054;8.524;2023-04-19T00:29:49;0.30;;;0.30;;
10029;SDS011;5055;52.054;8.524;2023-04-19T00:32:17;0.27;;;0.27;;
10029;SDS011;5055;52.054;8.524;2023-04-19T00:34:45;0.30;;;0.30;;
10029;SDS011;5055;52.054;8.524;2023-04-19T00:37:13;0.30;;;0.30;;
10029;SDS011;5055;52.054;8.524;2023-04-19T00:39:43;0.30;;;0.30;;
10029;SDS011;5055;52.054;8.524;2023-04-19T00:42:11;0.40;;;0.40;;
10029;SDS011;5055;52.054;8.524;2023-04-19T00:44:39;0.30;;;0.30;;
10029;SDS011;5055;52.054;8.524;2023-04-19T00:47:07;0.30;;;0.30;;
10029;SDS011;5055;52.054;8.524;2023-04-19T00:49:35;0.30;;;0.30;;
10029;SDS011;5055;52.054;8.524;2023-04-19T00:52:04;0.30;;;0.30;;
10029;SDS011;5055;52.054;8.524;2023-04-19T00:54:33;0.30;;;0.30;;
10029;SDS011;5055;52.054;8.524;2023-04-19T00:57:03;0.30;;;0.30;;
10029;SDS011;5055;52.054;8.524;2023-04-19T00:59:31;0.30;;;0.30;;
10029;SDS011;5055;52.054;8.524;2023-04-19T01:02:01;0.40;;;0.40;;
10029;SDS011;5055;52.054;8.524;2023-04-19T01:04:29;0.30;;;0.30;;
10029;SDS011;5055;52.054;8.524;2023-04-19T01:06:57;0.30;;;0.30;;
10029;SDS011;5055;52.054;8.524;2023-04-19T01:09:25;0.30;;;0.30;;
10029;SDS011;5055;52.054;8.524;2023-04-19T01:11:53;0.40;;;0.40;;
10029;SDS011;5055;52.054;8.524;2023-04-19T01:14:23;0.30;;;0.30;;
10029;SDS011;5055;52.054;8.524;2023-04-19T01:16:51;0.30;;;0.30;;
10029;SDS011;5055;52.054;8.524;2023-04-19T01:19:19;0.30;;;0.30;;
10029;SDS011;5055;52.054;8.524;2023-04-19T01:21:47;0.30;;;0.30;;
10029;SDS011;5055;52.054;8.524;2023-04-19T01:24:19;0.40;;;0.40;;
10029;SDS011;5055;52.054;8.524;2023-04-19T01:26:47;0.50;;;0.50;;
10029;SDS011;5055;52.054;8.524;2023-04-19T01:29:15;0.40;;;0.40;;
10029;SDS011;5055;52.054;8.524;2023-04-19T01:31:44;0.40;;;0.40;;
10029;SDS011;5055;52.054;8.524;2023-04-19T01:34:16;0.30;;;0.30;;
10029;SDS011;5055;52.054;8.524;2023-04-19T01:36:44;0.30;;;0.30;;
10029;SDS011;5055;52.054;8.524;2023-04-19T01:39:12;0.40;;;0.40;;
10029;SDS011;5055;52.054;8.524;2023-04-19T01:41:42;0.40;;;0.40;;
10029;SDS011;5055;52.054;8.524;2023-04-19T01:44:10;0.50;;;0.50;;
10029;SDS011;5055;52.054;8.524;2023-04-19T01:46:38;0.30;;;0.30;;
10029;SDS011;5055;52.054;8.524;2023-04-19T01:49:08;0.30;;;0.30;;
10029;SDS011;5055;52.054;8.524;2023-04-19T01:51:36;0.30;;;0.30;;
10029;SDS011;5055;52.054;8.524;2023-04-19T01:54:05;0.43;;;0.43;;
10029;SDS011;5055;52.054;8.524;2023-04-19T01:56:33;0.40;;;0.40;;
10029;SDS011;5055;52.054;8.524;2023-04-19T01:59:02;0.57;;;0.57;;
10029;SDS011;5055;52.054;8.524;2023-04-19T02:01:30;0.40;;;0.40;;
10029;SDS011;5055;52.054;8.524;2023-04-19T02:03:58;0.37;;;0.37;;
10029;SDS011;5055;52.054;8.524;2023-04-19T02:06:27;0.30;;;0.30;;
10029;SDS011;5055;52.054;8.524;2023-04-19T02:08:55;0.30;;;0.30;;
10029;SDS011;5055;52.054;8.524;2023-04-19T02:11:23;0.30;;;0.30;;
10029;SDS011;5055;52.054;8.524;2023-04-19T02:13:51;0.40;;;0.40;;
10029;SDS011;5055;52.054;8.524;2023-04-19T02:16:21;0.37;;;0.37;;
10029;SDS011;5055;52.054;8.524;2023-04-19T02:18:49;0.30;;;0.30;;
10029;SDS011;5055;52.054;8.524;2023-04-19T02:21:17;0.40;;;0.40;;
10029;SDS011;5055;52.054;8.524;2023-04-19T02:23:45;0.30;;;0.30;;
10029;SDS011;5055;52.054;8.524;2023-04-19T02:26:13;0.30;;;0.30;;
10029;SDS011;5055;52.054;8.524;2023-04-19T02:28:41;0.50;;;0.50;;
10029;SDS011;5055;52.054;8.524;2023-04-19T02:31:09;0.40;;;0.40;;
10029;SDS011;5055;52.054;8.524;2023-04-19T02:33:38;0.30;;;0.30;;
10029;SDS011;5055;52.054;8.524;2023-04-19T02:36:07;0.40;;;0.40;;
10029;SDS011;5055;52.054;8.524;2023-04-19T02:38:35;0.40;;;0.40;;
10029;SDS011;5055;52.054;8.524;2023-04-19T02:41:03;0.33;;;0.33;;
10029;SDS011;5055;52.054;8.524;2023-04-19T02:43:31;0.30;;;0.30;;
10029;SDS011;5055;52.054;8.524;2023-04-19T02:46:00;0.50;;;0.50;;
10029;SDS011;5055;52.054;8.524;2023-04-19T02:48:28;0.40;;;0.40;;
10029;SDS011;5055;52.054;8.524;2023-04-19T02:50:57;0.37;;;0.37;;
10029;SDS011;5055;52.054;8.524;2023-04-19T02:53:26;0.40;;;0.40;;
10029;SDS011;5055;52.054;8.524;2023-04-19T02:55:54;0.40;;;0.40;;
10029;SDS011;5055;52.054;8.524;2023-04-19T02:58:22;0.40;;;0.40;;
10029;SDS011;5055;52.054;8.524;2023-04-19T03:00:50;0.40;;;0.40;;
10029;SDS011;5055;52.054;8.524;2023-04-19T03:03:18;0.40;;;0.40;;
10029;SDS011;5055;52.054;8.524;2023-04-19T03:05:46;0.50;;;0.50;;
10029;SDS011;5055;52.054;8.524;2023-04-19T03:08:15;0.43;;;0.43;;
10029;SDS011;5055;52.054;8.524;2023-04-19T03:10:43;0.40;;;0.40;;
10029;SDS011;5055;52.054;8.524;2023-04-19T03:13:11;0.57;;;0.57;;
10029;SDS011;5055;52.054;8.524;2023-04-19T03:15:39;0.50;;;0.50;;
10029;SDS011;5055;52.054;8.524;2023-04-19T03:18:07;0.50;;;0.50;;
10029;SDS011;5055;52.054;8.524;2023-04-19T03:20:35;0.40;;;0.40;;
10029;SDS011;5055;52.054;8.524;2023-04-19T03:23:03;0.40;;;0.40;;
10029;SDS011;5055;52.054;8.524;2023-04-19T03:25:33;0.40;;;0.40;;
10029;SDS011;5055;52.054;8.524;2023-04-19T03:28:01;0.30;;;0.30;;
10029;SDS011;5055;52.054;8.524;2023-04-19T03:30:29;0.50;;;0.50;;
10029;SDS011;5055;52.054;8.524;2023-04-19T03:32:57;0.40;;;0.40;;
10029;SDS011;5055;52.054;8.524;2023-04-19T03:35:25;0.43;;;0.43;;
10029;SDS011;5055;52.054;8.524;2023-04-19T03:37:54;0.40;;;0.40;;
10029;SDS011;5055;52.054;8.524;2023-04-19T03:40:22;0.30;;;0.30;;
10029;SDS011;5055;52.054;8.524;2023-04-19T03:42:51;0.40;;;0.40;;
10029;SDS011;5055;52.054;8.524;2023-04-19T03:45:20;0.40;;;0.40;;
10029;SDS011;5055;52.054;8.524;2023-04-19T03:47:47;0.40;;;0.40;;
10029;SDS011;5055;52.054;8.524;2023-04-19T03:50:16;0.40;;;0.40;;
10029;SDS011;5055;52.054;8.524;2023-04-19T03:52:44;0.37;;;0.37;;
10029;SDS011;5055;52.054;8.524;2023-04-19T03:55:12;0.40;;;0.40;;
10029;SDS011;5055;52.054;8.524;2023-04-19T03:57:40;0.40;;;0.40;;
10029;SDS011;5055;52.054;8.524;2023-04-19T04:00:10;0.40;;;0.40;;
10029;SDS011;5055;52.054;8.524;2023-04-19T04:02:39;0.40;;;0.40;;
10029;SDS011;5055;52.054;8.524;2023-04-19T04:05:07;0.60;;;0.60;;
10029;SDS011;5055;52.054;8.524;2023-04-19T04:07:36;0.40;;;0.40;;
10029;SDS011;5055;52.054;8.524;2023-04-19T04:10:04;0.40;;;0.40;;
10029;SDS011;5055;52.054;8.524;2023-04-19T04:12:33;0.43;;;0.43;;
10029;SDS011;5055;52.054;8.524;2023-04-19T04:15:01;0.40;;;0.40;;
10029;SDS011;5055;52.054;8.524;2023-04-19T04:17:31;0.50;;;0.50;;
10029;SDS011;5055;52.054;8.524;2023-04-19T04:19:59;0.53;;;0.53;;
10029;SDS011;5055;52.054;8.524;2023-04-19T04:22:28;0.50;;;0.50;;
10029;SDS011;5055;52.054;8.524;2023-04-19T04:24:56;0.47;;;0.47;;
10029;SDS011;5055;52.054;8.524;2023-04-19T04:27:26;0.30;;;0.30;;
10029;SDS011;5055;52.054;8.524;2023-04-19T04:29:55;0.30;;;0.30;;
10029;SDS011;5055;52.054;8.524;2023-04-19T04:32:23;0.40;;;0.40;;
10029;SDS011;5055;52.054;8.524;2023-04-19T04:34:52;0.30;;;0.30;;
10029;SDS011;5055;52.054;8.524;2023-04-19T04:37:20;0.30;;;0.30;;
10029;SDS011;5055;52.054;8.524;2023-04-19T04:39:49;0.50;;;0.50;;
10029;SDS011;5055;52.054;8.524;2023-04-19T04:42:17;0.47;;;0.47;;
10029;SDS011;5055;52.054;8.524;2023-04-19T04:44:46;0.40;;;0.40;;
10029;SDS011;5055;52.054;8.524;2023-04-19T04:47:16;0.30;;;0.30;;
10029;SDS011;5055;52.054;8.524;2023-04-19T04:49:44;0.40;;;0.40;;
10029;SDS011;5055;52.054;8.524;2023-04-19T04:52:14;0.30;;;0.30;;
10029;SDS011;5055;52.054;8.524;2023-04-19T04:54:42;0.40;;;0.40;;
10029;SDS011;5055;52.054;8.524;2023-04-19T04:57:10;0.37;;;0.37;;
10029;SDS011;5055;52.054;8.524;2023-04-19T04:59:38;0.40;;;0.40;;
10029;SDS011;5055;52.054;8.524;2023-04-19T05:02:06;0.40;;;0.40;;
10029;SDS011;5055;52.054;8.524;2023-04-19T05:04:34;0.40;;;0.40;;
10029;SDS011;5055;52.054;8.524;2023-04-19T05:07:02;0.50;;;0.50;;
10029;SDS011;5055;52.054;8.524;2023-04-19T05:09:32;0.30;;;0.30;;
10029;SDS011;5055;52.054;8.524;2023-04-19T05:12:00;0.40;;;0.40;;
10029;SDS011;5055;52.054;8.524;2023-04-19T05:14:28;0.43;;;0.43;;
10029;SDS011;5055;52.054;8.524;2023-04-19T05:16:56;0.70;;;0.70;;
10029;SDS011;5055;52.054;8.524;2023-04-19T05:19:24;0.50;;;0.50;;
10029;SDS011;5055;52.054;8.524;2023-04-19T05:21:52;0.40;;;0.40;;
10029;SDS011;5055;52.054;8.524;2023-04-19T05:24:20;0.70;;;0.70;;
10029;SDS011;5055;52.054;8.524;2023-04-19T05:26:50;0.50;;;0.50;;
10029;SDS011;5055;52.054;8.524;2023-04-19T05:29:18;0.40;;;0.40;;
10029;SDS011;5055;52.054;8.524;2023-04-19T05:31:46;0.30;;;0.30;;
10029;SDS011;5055;52.054;8.524;2023-04-19T05:34:14;0.50;;;0.50;;
10029;SDS011;5055;52.054;8.524;2023-04-19T05:36:44;0.60;;;0.60;;
10029;SDS011;5055;52.054;8.524;2023-04-19T05:39:12;0.60;;;0.60;;
10029;SDS011;5055;52.054;8.524;2023-04-19T05:41:41;0.40;;;0.40;;
10029;SDS011;5055;52.054;8.524;2023-04-19T05:44:11;0.40;;;0.40;;
10029;SDS011;5055;52.054;8.524;2023-04-19T05:46:39;0.40;;;0.40;;
10029;SDS011;5055;52.054;8.524;2023-04-19T05:49:07;0.47;;;0.47;;
10029;SDS011;5055;52.054;8.524;2023-04-19T05:51:35;0.40;;;0.40;;
10029;SDS011;5055;52.054;8.524;2023-04-19T05:54:03;0.40;;;0.40;;
10029;SDS011;5055;52.054;8.524;2023-04-19T05:56:31;0.40;;;0.40;;
10029;SDS011;5055;52.054;8.524;2023-04-19T05:58:59;0.50;;;0.50;;
10029;SDS011;5055;52.054;8.524;2023-04-19T06:01:29;0.50;;;0.50;;
10029;SDS011;5055;52.054;8.524;2023-04-19T06:03:57;0.50;;;0.50;;
10029;SDS011;5055;52.054;8.524;2023-04-19T06:06:25;0.40;;;0.40;;
10029;SDS011;5055;52.054;8.524;2023-04-19T06:08:54;0.40;;;0.40;;
10029;SDS011;5055;52.054;8.524;2023-04-19T06:11:23;0.40;;;0.40;;
10029;SDS011;5055;52.054;8.524;2023-04-19T06:14:04;0.40;;;0.40;;
10029;SDS011;5055;52.054;8.524;2023-04-19T06:16:34;0.50;;;0.50;;
10029;SDS011;5055;52.054;8.524;2023-04-19T06:19:02;0.50;;;0.50;;
10029;SDS011;5055;52.054;8.524;2023-04-19T06:21:30;0.33;;;0.33;;
10029;SDS011;5055;52.054;8.524;2023-04-19T06:23:58;0.40;;;0.40;;
10029;SDS011;5055;52.054;8.524;2023-04-19T06:26:26;0.40;;;0.40;;
10029;SDS011;5055;52.054;8.524;2023-04-19T06:28:54;0.37;;;0.37;;
10029;SDS011;5055;52.054;8.524;2023-04-19T06:31:22;0.50;;;0.50;;
10029;SDS011;5055;52.054;8.524;2023-04-19T06:33:52;0.40;;;0.40;;
10029;SDS011;5055;52.054;8.524;2023-04-19T06:36:20;0.43;;;0.43;;
10029;SDS011;5055;52.054;8.524;2023-04-19T06:38:48;0.43;;;0.43;;
10029;SDS011;5055;52.054;8.524;2023-04-19T06:41:16;0.30;;;0.30;;
10029;SDS011;5055;52.054;8.524;2023-04-19T06:43:45;0.50;;;0.50;;
10029;SDS011;5055;52.054;8.524;2023-04-19T06:46:13;0.40;;;0.40;;
10029;SDS011;5055;52.054;8.524;2023-04-19T06:48:41;0.30;;;0.30;;
10029;SDS011;5055;52.054;8.524;2023-04-19T06:51:11;0.50;;;0.50;;
10029;SDS011;5055;52.054;8.524;2023-04-19T06:53:39;0.40;;;0.40;;
10029;SDS011;5055;52.054;8.524;2023-04-19T06:56:07;0.30;;;0.30;;
10029;SDS011;5055;52.054;8.524;2023-04-19T06:58:35;0.30;;;0.30;;
10029;SDS011;5055;52.054;8.524;2023-04-19T07:01:04;0.40;;;0.40;;
10029;SDS011;5055;52.054;8.524;2023-04-19T07:03:32;0.30;;;0.30;;
10029;SDS011;5055;52.054;8.524;2023-04-19T07:06:00;0.40;;;0.40;;
10029;SDS011;5055;52.054;8.524;2023-04-19T07:08:30;0.47;;;0.47;;
10029;SDS011;5055;52.054;8.524;2023-04-19T07:11:15;0.27;;;0.27;;
10029;SDS011;5055;52.054;8.524;2023-04-19T07:13:47;0.30;;;0.30;;
10029;SDS011;5055;52.054;8.524;2023-04-19T07:16:16;0.40;;;0.40;;
10029;SDS011;5055;52.054;8.524;2023-04-19T07:18:44;0.30;;;0.30;;
10029;SDS011;5055;52.054;8.524;2023-04-19T07:21:12;0.40;;;0.40;;
10029;SDS011;5055;52.054;8.524;2023-04-19T07:23:42;0.40;;;0.40;;
10029;SDS011;5055;52.054;8.524;2023-04-19T07:26:10;0.30;;;0.30;;
10029;SDS011;5055;52.054;8.524;2023-04-19T07:28:40;0.40;;;0.40;;
10029;SDS011;5055;52.054;8.524;2023-04-19T07:31:13;0.30;;;0.30;;
10029;SDS011;5055;52.054;8.524;2023-04-19T07:33:41;0.40;;;0.40;;
10029;SDS011;5055;52.054;8.524;2023-04-19T07:36:10;0.37;;;0.37;;
10029;SDS011;5055;52.054;8.524;2023-04-19T07:38:38;0.40;;;0.40;;
10029;SDS011;5055;52.054;8.524;2023-04-19T07:41:07;0.30;;;0.30;;
10029;SDS011;5055;52.054;8.524;2023-04-19T07:43:35;0.33;;;0.33;;
10029;SDS011;5055;52.054;8.524;2023-04-19T07:46:07;0.30;;;0.30;;
10029;SDS011;5055;52.054;8.524;2023-04-19T07:48:36;0.33;;;0.33;;
10029;SDS011;5055;52.054;8.524;2023-04-19T07:51:08;0.40;;;0.40;;
10029;SDS011;5055;52.054;8.524;2023-04-19T07:53:37;0.30;;;0.30;;
10029;SDS011;5055;52.054;8.524;2023-04-19T07:56:08;0.40;;;0.40;;
10029;SDS011;5055;52.054;8.524;2023-04-19T07:58:38;0.33;;;0.33;;
10029;SDS011;5055;52.054;8.524;2023-04-19T08:01:07;0.30;;;0.30;;
10029;SDS011;5055;52.054;8.524;2023-04-19T08:03:35;0.40;;;0.40;;
10029;SDS011;5055;52.054;8.524;2023-04-19T08:06:04;0.30;;;0.30;;
10029;SDS011;5055;52.054;8.524;2023-04-19T08:08:33;0.30;;;0.30;;
10029;SDS011;5055;52.054;8.524;2023-04-19T08:11:01;0.30;;;0.30;;
10029;SDS011;5055;52.054;8.524;2023-04-19T08:13:31;0.30;;;0.30;;
10029;SDS011;5055;52.054;8.524;2023-04-19T08:16:00;0.30;;;0.30;;
10029;SDS011;5055;52.054;8.524;2023-04-19T08:18:48;0.30;;;0.30;;
10029;SDS011;5055;52.054;8.524;2023-04-19T08:21:17;0.30;;;0.30;;
10029;SDS011;5055;52.054;8.524;2023-04-19T08:23:53;0.23;;;0.23;;
10029;SDS011;5055;52.054;8.524;2023-04-19T08:26:21;0.20;;;0.20;;
10029;SDS011;5055;52.054;8.524;2023-04-19T08:28:51;0.27;;;0.27;;
10029;SDS011;5055;52.054;8.524;2023-04-19T08:31:19;0.30;;;0.30;;
10029;SDS011;5055;52.054;8.524;2023-04-19T08:33:47;0.27;;;0.27;;
10029;SDS011;5055;52.054;8.524;2023-04-19T08:36:15;0.30;;;0.30;;
10029;SDS011;5055;52.054;8.524;2023-04-19T08:38:50;0.30;;;0.30;;
10029;SDS011;5055;52.054;8.524;2023-04-19T08:41:32;0.40;;;0.40;;
10029;SDS011;5055;52.054;8.524;2023-04-19T08:44:03;0.20;;;0.20;;
10029;SDS011;5055;52.054;8.524;2023-04-19T08:46:33;0.20;;;0.20;;
10029;SDS011;5055;52.054;8.524;2023-04-19T08:49:02;0.30;;;0.30;;
10029;SDS011;5055;52.054;8.524;2023-04-19T08:51:31;0.30;;;0.30;;
10029;SDS011;5055;52.054;8.524;2023-04-19T08:54:02;0.30;;;0.30;;
10029;SDS011;5055;52.054;8.524;2023-04-19T08:56:32;0.30;;;0.30;;
10029;SDS011;5055;52.054;8.524;2023-04-19T08:59:01;0.30;;;0.30;;
10029;SDS011;5055;52.054;8.524;2023-04-19T09:01:44;0.20;;;0.20;;
10029;SDS011;5055;52.054;8.524;2023-04-19T09:04:13;0.30;;;0.30;;
10029;SDS011;5055;52.054;8.524;2023-04-19T09:07:01;0.23;;;0.23;;
10029;SDS011;5055;52.054;8.524;2023-04-19T09:09:29;0.20;;;0.20;;
10029;SDS011;5055;52.054;8.524;2023-04-19T09:12:14;0.30;;;0.30;;
10029;SDS011;5055;52.054;8.524;2023-04-19T09:14:44;0.20;;;0.20;;
10029;SDS011;5055;52.054;8.524;2023-04-19T09:17:28;0.23;;;0.23;;
10029;SDS011;5055;52.054;8.524;2023-04-19T09:19:57;0.30;;;0.30;;
10029;SDS011;5055;52.054;8.524;2023-04-19T09:22:25;0.20;;;0.20;;
10029;SDS011;5055;52.054;8.524;2023-04-19T09:24:53;0.33;;;0.33;;
10029;SDS011;5055;52.054;8.524;2023-04-19T09:27:25;0.40;;;0.40;;
10029;SDS011;5055;52.054;8.524;2023-04-19T09:29:55;0.20;;;0.20;;
10029;SDS011;5055;52.054;8.524;2023-04-19T09:32:24;0.30;;;0.30;;
10029;SDS011;5055;52.054;8.524;2023-04-19T09:34:55;0.20;;;0.20;;
10029;SDS011;5055;52.054;8.524;2023-04-19T09:37:25;0.20;;;0.20;;
10029;SDS011;5055;52.054;8.524;2023-04-19T09:39:56;0.20;;;0.20;;
10029;SDS011;5055;52.054;8.524;2023-04-19T09:42:28;0.20;;;0.20;;
10029;SDS011;5055;52.054;8.524;2023-04-19T09:45:14;0.30;;;0.30;;
10029;SDS011;5055;52.054;8.524;2023-04-19T09:47:50;0.20;;;0.20;;
10029;SDS011;5055;52.054;8.524;2023-04-19T09:50:29;0.27;;;0.27;;
10029;SDS011;5055;52.054;8.524;2023-04-19T09:53:01;0.20;;;0.20;;
10029;SDS011;5055;52.054;8.524;2023-04-19T09:55:29;0.20;;;0.20;;
10029;SDS011;5055;52.054;8.524;2023-04-19T09:58:10;0.23;;;0.23;;
10029;SDS011;5055;52.054;8.524;2023-04-19T10:00:38;0.30;;;0.30;;
10029;SDS011;5055;52.054;8.524;2023-04-19T10:03:16;0.20;;;0.20;;
10029;SDS011;5055;52.054;8.524;2023-04-19T10:05:48;0.20;;;0.20;;
10029;SDS011;5055;52.054;8.524;2023-04-19T10:08:17;0.20;;;0.20;;
10029;SDS011;5055;52.054;8.524;2023-04-19T10:10:46;0.20;;;0.20;;
10029;SDS011;5055;52.054;8.524;2023-04-19T10:13:20;0.20;;;0.20;;
10029;SDS011;5055;52.054;8.524;2023-04-19T10:15:52;0.30;;;0.30;;
10029;SDS011;5055;52.054;8.524;2023-04-19T10:18:37;0.20;;;0.20;;
10029;SDS011;5055;52.054;8.524;2023-04-19T10:21:06;0.30;;;0.30;;
10029;SDS011;5055;52.054;8.524;2023-04-19T10:23:36;0.20;;;0.20;;
10029;SDS011;5055;52.054;8.524;2023-04-19T10:26:05;0.30;;;0.30;;
10029;SDS011;5055;52.054;8.524;2023-04-19T10:28:34;0.17;;;0.17;;
10029;SDS011;5055;52.054;8.524;2023-04-19T10:31:03;0.27;;;0.27;;
10029;SDS011;5055;52.054;8.524;2023-04-19T10:33:33;0.30;;;0.30;;
10029;SDS011;5055;52.054;8.524;2023-04-19T10:36:03;0.20;;;0.20;;
10029;SDS011;5055;52.054;8.524;2023-04-19T10:38:37;0.30;;;0.30;;
10029;SDS011;5055;52.054;8.524;2023-04-19T10:41:06;0.20;;;0.20;;
10029;SDS011;5055;52.054;8.524;2023-04-19T10:43:44;0.30;;;0.30;;
10029;SDS011;5055;52.054;8.524;2023-04-19T10:46:13;0.20;;;0.20;;
10029;SDS011;5055;52.054;8.524;2023-04-19T10:48:50;0.20;;;0.20;;
10029;SDS011;5055;52.054;8.524;2023-04-19T10:51:21;0.20;;;0.20;;
10029;SDS011;5055;52.054;8.524;2023-04-19T10:53:54;0.20;;;0.20;;
10029;SDS011;5055;52.054;8.524;2023-04-19T10:59:25;0.20;;;0.20;;
10029;SDS011;5055;52.054;8.524;2023-04-19T11:01:54;0.20;;;0.20;;
10029;SDS011;5055;52.054;8.524;2023-04-19T11:07:40;0.20;;;0.20;;
10029;SDS011;5055;52.054;8.524;2023-04-19T11:10:09;0.30;;;0.30;;
10029;SDS011;5055;52.054;8.524;2023-04-19T11:12:40;0.23;;;0.23;;
10029;SDS011;5055;52.054;8.524;2023-04-19T11:15:10;0.20;;;0.20;;
10029;SDS011;5055;52.054;8.524;2023-04-19T11:17:38;0.20;;;0.20;;
10029;SDS011;5055;52.054;8.524;2023-04-19T11:20:08;0.20;;;0.20;;
10029;SDS011;5055;52.054;8.524;2023-04-19T11:22:39;0.20;;;0.20;;
10029;SDS011;5055;52.054;8.524;2023-04-19T11:25:08;0.20;;;0.20;;
10029;SDS011;5055;52.054;8.524;2023-04-19T11:27:38;0.20;;;0.20;;
10029;SDS011;5055;52.054;8.524;2023-04-19T11:30:08;0.20;;;0.20;;
10029;SDS011;5055;52.054;8.524;2023-04-19T11:32:43;0.20;;;0.20;;
10029;SDS011;5055;52.054;8.524;2023-04-19T11:35:12;0.20;;;0.20;;
10029;SDS011;5055;52.054;8.524;2023-04-19T11:37:42;0.20;;;0.20;;
10029;SDS011;5055;52.054;8.524;2023-04-19T11:40:13;0.20;;;0.20;;
10029;SDS011;5055;52.054;8.524;2023-04-19T11:42:42;0.20;;;0.20;;
10029;SDS011;5055;52.054;8.524;2023-04-19T11:45:10;0.20;;;0.20;;
10029;SDS011;5055;52.054;8.524;2023-04-19T11:47:54;0.20;;;0.20;;
10029;SDS011;5055;52.054;8.524;2023-04-19T11:50:29;0.10;;;0.10;;
10029;SDS011;5055;52.054;8.524;2023-04-19T11:53:12;0.20;;;0.20;;
10029;SDS011;5055;52.054;8.524;2023-04-19T11:55:45;0.20;;;0.20;;
10029;SDS011;5055;52.054;8.524;2023-04-19T11:58:23;0.20;;;0.20;;
10029;SDS011;5055;52.054;8.524;2023-04-19T12:00:54;0.20;;;0.20;;
10029;SDS011;5055;52.054;8.524;2023-04-19T12:03:25;0.20;;;0.20;;
10029;SDS011;5055;52.054;8.524;2023-04-19T12:05:54;0.20;;;0.20;;
10029;SDS011;5055;52.054;8.524;2023-04-19T12:08:31;0.20;;;0.20;;
10029;SDS011;5055;52.054;8.524;2023-04-19T12:11:01;0.20;;;0.20;;
10029;SDS011;5055;52.054;8.524;2023-04-19T12:13:31;0.20;;;0.20;;
10029;SDS011;5055;52.054;8.524;2023-04-19T12:15:59;0.10;;;0.10;;
10029;SDS011;5055;52.054;8.524;2023-04-19T12:18:40;0.20;;;0.20;;
10029;SDS011;5055;52.054;8.524;2023-04-19T12:21:10;0.20;;;0.20;;
10029;SDS011;5055;52.054;8.524;2023-04-19T12:23:53;0.30;;;0.30;;
10029;SDS011;5055;52.054;8.524;2023-04-19T12:26:22;0.20;;;0.20;;
10029;SDS011;5055;52.054;8.524;2023-04-19T12:28:50;0.20;;;0.20;;
10029;SDS011;5055;52.054;8.524;2023-04-19T12:31:19;0.20;;;0.20;;
10029;SDS011;5055;52.054;8.524;2023-04-19T12:33:48;0.20;;;0.20;;
10029;SDS011;5055;52.054;8.524;2023-04-19T12:36:16;0.10;;;0.10;;
10029;SDS011;5055;52.054;8.524;2023-04-19T12:38:44;0.20;;;0.20;;
10029;SDS011;5055;52.054;8.524;2023-04-19T12:41:13;0.20;;;0.20;;
10029;SDS011;5055;52.054;8.524;2023-04-19T12:43:42;0.20;;;0.20;;
10029;SDS011;5055;52.054;8.524;2023-04-19T12:46:10;0.30;;;0.30;;
10029;SDS011;5055;52.054;8.524;2023-04-19T12:48:38;0.20;;;0.20;;
10029;SDS011;5055;52.054;8.524;2023-04-19T12:51:06;0.10;;;0.10;;
10029;SDS011;5055;52.054;8.524;2023-04-19T12:56:07;0.20;;;0.20;;
10029;SDS011;5055;52.054;8.524;2023-04-19T12:58:39;0.20;;;0.20;;
10029;SDS011;5055;52.054;8.524;2023-04-19T13:01:07;0.20;;;0.20;;
10029;SDS011;5055;52.054;8.524;2023-04-19T13:03:35;0.20;;;0.20;;
10029;SDS011;5055;52.054;8.524;2023-04-19T13:06:04;0.20;;;0.20;;
10029;SDS011;5055;52.054;8.524;2023-04-19T13:08:35;0.20;;;0.20;;
10029;SDS011;5055;52.054;8.524;2023-04-19T13:11:11;0.20;;;0.20;;
10029;SDS011;5055;52.054;8.524;2023-04-19T13:13:41;0.20;;;0.20;;
10029;SDS011;5055;52.054;8.524;2023-04-19T13:16:09;0.20;;;0.20;;
10029;SDS011;5055;52.054;8.524;2023-04-19T13:18:37;0.17;;;0.17;;
10029;SDS011;5055;52.054;8.524;2023-04-19T13:21:05;0.20;;;0.20;;
10029;SDS011;5055;52.054;8.524;2023-04-19T13:23:34;0.20;;;0.20;;
10029;SDS011;5055;52.054;8.524;2023-04-19T13:26:02;0.20;;;0.20;;
10029;SDS011;5055;52.054;8.524;2023-04-19T13:28:30;0.20;;;0.20;;
10029;SDS011;5055;52.054;8.524;2023-04-19T13:31:03;0.20;;;0.20;;
10029;SDS011;5055;52.054;8.524;2023-04-19T13:33:31;0.20;;;0.20;;
10029;SDS011;5055;52.054;8.524;2023-04-19T13:36:00;0.20;;;0.20;;
10029;SDS011;5055;52.054;8.524;2023-04-19T13:38:28;0.20;;;0.20;;
10029;SDS011;5055;52.054;8.524;2023-04-19T13:40:56;0.20;;;0.20;;
10029;SDS011;5055;52.054;8.524;2023-04-19T13:43:24;0.20;;;0.20;;
10029;SDS011;5055;52.054;8.524;2023-04-19T13:45:52;0.10;;;0.10;;
10029;SDS011;5055;52.054;8.524;2023-04-19T13:48:21;0.20;;;0.20;;
10029;SDS011;5055;52.054;8.524;2023-04-19T13:50:52;0.20;;;0.20;;
10029;SDS011;5055;52.054;8.524;2023-04-19T13:53:20;0.10;;;0.10;;
10029;SDS011;5055;52.054;8.524;2023-04-19T13:55:48;0.20;;;0.20;;
10029;SDS011;5055;52.054;8.524;2023-04-19T13:58:17;0.20;;;0.20;;
10029;SDS011;5055;52.054;8.524;2023-04-19T14:00:45;0.20;;;0.20;;
10029;SDS011;5055;52.054;8.524;2023-04-19T14:03:14;0.20;;;0.20;;
10029;SDS011;5055;52.054;8.524;2023-04-19T14:05:44;0.20;;;0.20;;
10029;SDS011;5055;52.054;8.524;2023-04-19T14:08:12;0.20;;;0.20;;
10029;SDS011;5055;52.054;8.524;2023-04-19T14:10:40;0.20;;;0.20;;
10029;SDS011;5055;52.054;8.524;2023-04-19T14:13:08;0.10;;;0.10;;
10029;SDS011;5055;52.054;8.524;2023-04-19T14:15:36;0.10;;;0.10;;
10029;SDS011;5055;52.054;8.524;2023-04-19T14:18:04;0.10;;;0.10;;
10029;SDS011;5055;52.054;8.524;2023-04-19T14:20:32;0.20;;;0.20;;
10029;SDS011;5055;52.054;8.524;2023-04-19T14:23:02;0.20;;;0.20;;
10029;SDS011;5055;52.054;8.524;2023-04-19T14:25:30;0.10;;;0.10;;
10029;SDS011;5055;52.054;8.524;2023-04-19T14:27:59;0.10;;;0.10;;
10029;SDS011;5055;52.054;8.524;2023-04-19T14:30:27;0.10;;;0.10;;
10029;SDS011;5055;52.054;8.524;2023-04-19T14:32:56;0.10;;;0.10;;
10029;SDS011;5055;52.054;8.524;2023-04-19T14:35:26;0.10;;;0.10;;
10029;SDS011;5055;52.054;8.524;2023-04-19T14:37:54;0.10;;;0.10;;
10029;SDS011;5055;52.054;8.524;2023-04-19T14:40:23;0.10;;;0.10;;
10029;SDS011;5055;52.054;8.524;2023-04-19T14:42:51;0.10;;;0.10;;
10029;SDS011;5055;52.054;8.524;2023-04-19T14:45:19;0.10;;;0.10;;
10029;SDS011;5055;52.054;8.524;2023-04-19T14:47:47;0.10;;;0.10;;
10029;SDS011;5055;52.054;8.524;2023-04-19T14:50:15;0.20;;;0.20;;
10029;SDS011;5055;52.054;8.524;2023-04-19T14:52:43;0.20;;;0.20;;
10029;SDS011;5055;52.054;8.524;2023-04-19T14:55:12;0.20;;;0.20;;
10029;SDS011;5055;52.054;8.524;2023-04-19T14:57:41;0.20;;;0.20;;
10029;SDS011;5055;52.054;8.524;2023-04-19T15:00:09;0.20;;;0.20;;
10029;SDS011;5055;52.054;8.524;2023-04-19T15:02:38;0.20;;;0.20;;
10029;SDS011;5055;52.054;8.524;2023-04-19T15:05:07;0.20;;;0.20;;
10029;SDS011;5055;52.054;8.524;2023-04-19T15:07:36;0.20;;;0.20;;
10029;SDS011;5055;52.054;8.524;2023-04-19T15:10:05;0.20;;;0.20;;
10029;SDS011;5055;52.054;8.524;2023-04-19T15:12:33;0.20;;;0.20;;
10029;SDS011;5055;52.054;8.524;2023-04-19T15:15:03;0.20;;;0.20;;
10029;SDS011;5055;52.054;8.524;2023-04-19T15:17:32;0.20;;;0.20;;
10029;SDS011;5055;52.054;8.524;2023-04-19T15:20:00;0.20;;;0.20;;
10029;SDS011;5055;52.054;8.524;2023-04-19T15:22:28;0.20;;;0.20;;